header
  MetSoc Home            Publications            Contacts  

List of Strewnfield Members

Searching for strewnfield members of Puerto Lápice
This meteorite fell in 2007
67 strewnfield members found.
Google Earth Plot in Google Earth

Google Earth no labels Plot in Google Earth with no labels

(Click on a column heading to sort)

Meteorite [mass name] Synonyn Mass Latitude Longitude Class Finder Found Description Main mass loc Type spec mass Type spec loc Approved Ref
Puerto Lápice [1] 5.7 g 39°21'53"N 3°31'19"W   2018-12-20 Trigo-Rodriguez et al. (2009)
Puerto Lápice [2] 4.5 g 39°21'45"N 3°31'19"W   2018-12-20 Trigo-Rodriguez et al. (2009)
Puerto Lápice [3] 3 g 39°21'42"N 3°31'21"W   2018-12-20 Trigo-Rodriguez et al. (2009)
Puerto Lápice [4] 3.8 g 39°21'43"N 3°31'16"W   2018-12-20 Trigo-Rodriguez et al. (2009)
Puerto Lápice [5] 5.9 g 39°21'41"N 3°31'22"W   2018-12-20 Trigo-Rodriguez et al. (2009)
Puerto Lápice [6] 2 g 39°21'48"N 3°31'22"W   2018-12-20 Trigo-Rodriguez et al. (2009)
Puerto Lápice [7] 2.5 g 39°21'31"N 3°30'55"W   2018-12-20 Trigo-Rodriguez et al. (2009)
Puerto Lápice [8] 5.6 g 39°21'31"N 3°30'55"W   2018-12-20 Trigo-Rodriguez et al. (2009)
Puerto Lápice [9] 1.1 g 39°22'12"N 3°31'1"W   2018-12-20 Trigo-Rodriguez et al. (2009)
Puerto Lápice [10] 0.1 g 39°21'23"N 3°31'5"W   2018-12-20 Trigo-Rodriguez et al. (2009)
Puerto Lápice [11] 8.4 g 39°21'48"N 3°31'30"W   2018-12-20 Trigo-Rodriguez et al. (2009)
Puerto Lápice [12] 4.3 g 39°21'23"N 3°31'5"W   2018-12-20 Trigo-Rodriguez et al. (2009)
Puerto Lápice [13] 4.6 g 39°21'58"N 3°31'54"W   2018-12-20 Trigo-Rodriguez et al. (2009)
Puerto Lápice [14] 6.3 g 39°21'51"N 3°32'19"W   2018-12-20 Trigo-Rodriguez et al. (2009)
Puerto Lápice [15] 2.5 g 39°21'52"N 3°32'18"W   2018-12-20 Trigo-Rodriguez et al. (2009)
Puerto Lápice [16] 29.4 g 39°21'51"N 3°32'29"W   2018-12-20 Trigo-Rodriguez et al. (2009)
Puerto Lápice [17] 12.1 g 39°21'53"N 3°32'39"W   2018-12-20 Trigo-Rodriguez et al. (2009)
Puerto Lápice [18] 89.1 g 39°22'2"N 3°32'52"W   2018-12-20 Trigo-Rodriguez et al. (2009)
Puerto Lápice [19] 12.1 g 39°21'58"N 3°32'57"W   2018-12-20 Trigo-Rodriguez et al. (2009)
Puerto Lápice [20] 22.6 g 39°22'2"N 3°32'46"W   2018-12-20 Trigo-Rodriguez et al. (2009)
Puerto Lápice [21] 3.2 g 39°21'11"N 3°30'54"W   2018-12-20 Trigo-Rodriguez et al. (2009)
Puerto Lápice [22] 11.1 g 39°21'12"N 3°31'6"W   2018-12-20 Trigo-Rodriguez et al. (2009)
Puerto Lápice [23] 5.8 g 39°21'11"N 3°31'0"W   2018-12-20 Trigo-Rodriguez et al. (2009)
Puerto Lápice [24] 8.3 g 39°21'12"N 3°30'59"W   2018-12-20 Trigo-Rodriguez et al. (2009)
Puerto Lápice [25] 6.9 g 39°21'12"N 3°31'8"W   2018-12-20 Trigo-Rodriguez et al. (2009)
Puerto Lápice [26] 4.5 g 39°21'17"N 3°31'1"W   2018-12-20 Trigo-Rodriguez et al. (2009)
Puerto Lápice [27] 1.9 g 39°21'22"N 3°30'59"W   2018-12-20 Trigo-Rodriguez et al. (2009)
Puerto Lápice [28] 2.5 g 39°21'5"N 3°30'36"W   2018-12-20 Trigo-Rodriguez et al. (2009)
Puerto Lápice [29] 5 g 39°21'26"N 3°30'57"W   2018-12-20 Trigo-Rodriguez et al. (2009)
Puerto Lápice [30] 3.5 g 39°21'27"N 3°30'57"W   2018-12-20 Trigo-Rodriguez et al. (2009)
Puerto Lápice [31] 2.4 g 39°21'26"N 3°30'56"W   2018-12-20 Trigo-Rodriguez et al. (2009)
Puerto Lápice [32] 0.8 g 39°21'26"N 3°30'56"W   2018-12-20 Trigo-Rodriguez et al. (2009)
Puerto Lápice [33] 2.9 g 39°21'26"N 3°31'1"W   2018-12-20 Trigo-Rodriguez et al. (2009)
Puerto Lápice [34] 4.4 g 39°21'28"N 3°31'1"W   2018-12-20 Trigo-Rodriguez et al. (2009)
Puerto Lápice [35] 5.6 g 39°21'28"N 3°30'50"W   2018-12-20 Trigo-Rodriguez et al. (2009)
Puerto Lápice [36] 1.3 g 39°21'22"N 3°30'57"W   2018-12-20 Trigo-Rodriguez et al. (2009)
Puerto Lápice [37] 2.5 g 39°21'24"N 3°31'2"W   2018-12-20 Trigo-Rodriguez et al. (2009)
Puerto Lápice [38] 3 g 39°21'13"N 3°31'6"W   2018-12-20 Trigo-Rodriguez et al. (2009)
Puerto Lápice [39] 4.1 g 39°21'15"N 3°31'7"W   2018-12-20 Trigo-Rodriguez et al. (2009)
Puerto Lápice [40] 2.9 g 39°21'15"N 3°31'12"W   2018-12-20 Trigo-Rodriguez et al. (2009)
Puerto Lápice [41] 5.6 g 39°21'15"N 3°31'4"W   2018-12-20 Trigo-Rodriguez et al. (2009)
Puerto Lápice [42] 5.2 g 39°22'8"N 3°31'56"W   2018-12-20 Trigo-Rodriguez et al. (2009)
Puerto Lápice [43] 1.9 g 39°21'31"N 3°30'51"W   2018-12-20 Trigo-Rodriguez et al. (2009)
Puerto Lápice [44] 3.2 g 39°21'12"N 3°30'39"W   2018-12-20 Trigo-Rodriguez et al. (2009)
Puerto Lápice [45] 5.1 g 39°20'55"N 3°31'11"W   2018-12-20 Trigo-Rodriguez et al. (2009)
Puerto Lápice [46] 1.3 g 39°21'22"N 3°30'59"W   2018-12-20 Trigo-Rodriguez et al. (2009)
Puerto Lápice [47] 8 g 39°21'22"N 3°31'2"W   2018-12-20 Trigo-Rodriguez et al. (2009)
Puerto Lápice [48] 13.7 g 39°21'3"N 3°31'4"W   2018-12-20 Trigo-Rodriguez et al. (2009)
Puerto Lápice [49] 5.2 g 39°20'55"N 3°31'11"W   2018-12-20 Trigo-Rodriguez et al. (2009)
Puerto Lápice [50] 5.2 g 39°20'52"N 3°31'43"W   2018-12-20 Trigo-Rodriguez et al. (2009)
Puerto Lápice [51] 3.4 g 39°20'53"N 3°31'44"W   2018-12-20 Trigo-Rodriguez et al. (2009)
Puerto Lápice [52] 6.7 g 39°21'8"N 3°31'29"W   2018-12-20 Trigo-Rodriguez et al. (2009)
Puerto Lápice [53] 10.4 g 39°21'7"N 3°31'25"W   2018-12-20 Trigo-Rodriguez et al. (2009)
Puerto Lápice [54] 6.1 g 39°20'59"N 3°31'27"W   2018-12-20 Trigo-Rodriguez et al. (2009)
Puerto Lápice [55] 7 g 39°21'2"N 3°31'33"W   2018-12-20 Trigo-Rodriguez et al. (2009)
Puerto Lápice [56] 10.2 g 39°21'1"N 3°31'31"W   2018-12-20 Trigo-Rodriguez et al. (2009)
Puerto Lápice [57] 5.6 g 39°21'0"N 3°31'26"W   2018-12-20 Trigo-Rodriguez et al. (2009)
Puerto Lápice [58] 4.8 g 39°20'55"N 3°31'25"W   2018-12-20 Trigo-Rodriguez et al. (2009)
Puerto Lápice [59] 1.4 g 39°20'52"N 3°31'17"W   2018-12-20 Trigo-Rodriguez et al. (2009)
Puerto Lápice [60] 6 g 39°20'51"N 3°31'17"W   2018-12-20 Trigo-Rodriguez et al. (2009)
Puerto Lápice [61] 6.1 g 39°20'52"N 3°31'14"W   2018-12-20 Trigo-Rodriguez et al. (2009)
Puerto Lápice [62] 3 g 39°20'59"N 3°31'5"W   2018-12-20 Trigo-Rodriguez et al. (2009)
Puerto Lápice [63] 10.5 g 39°21'6"N 3°31'17"W   2018-12-20 Trigo-Rodriguez et al. (2009)
Puerto Lápice [64] 9.7 g 39°20'55"N 3°31'2"W   2018-12-20 Trigo-Rodriguez et al. (2009)
Puerto Lápice [65] 6.7 g 39°20'54"N 3°30'59"W   2018-12-20 Trigo-Rodriguez et al. (2009)
Puerto Lápice [66] 4.7 g 39°20'58"N 3°30'44"W   2018-12-20 Trigo-Rodriguez et al. (2009)
Puerto Lápice [67] 3.9 g 39°20'59"N 3°30'42"W   2018-12-20 Trigo-Rodriguez et al. (2009)
Bibliography: